Terminal Aerodrome Forecast
Issued by NWS

Home | Current Version | Previous Version | Text Only | Print | Product List | Glossary On
Versions: 1 2 3 4 5 6 7 8 9 10 11 12
000
FTUS45 KABQ 032300
TAFROW
TAF
KROW 032330Z 0400/0424 14015KT P6SM VCSH SCT090 BKN120
     FM040700 15009KT P6SM BKN100
     FM041000 15018G26KT P6SM BKN025
     FM041800 13014G20KT P6SM BKN070 PROB30 0420/0424 TSRA BKN050CB=

USA.gov is the U.S. government's official web portal to all federal, state and local government web resources and services.